Time;durP1;ratioP1;P1;durP2;ratioP2;P2;SDS_P1;SDS_P2;PMS_P1;PMS_P2;Temp;Humidity;BMP_temperature;BMP_pressure;BME280_temperature;BME280_humidity;BME280_pressure;Samples;Min_cycle;Max_cycle;Signal;HPM_P1;HPM_P2
2021/06/19 00:00:35;;;;;;;;;;;19.90;99.90;;;;;;8359525;28;19924;-65
2021/06/19 00:04:36;;;;;;;;;;;20.20;99.90;;;;;;8360108;28;19909;-65
2021/06/19 00:08:36;;;;;;;;;;;19.90;99.90;;;;;;8359612;28;19909;-65
2021/06/19 00:12:37;;;;;;;;;;;19.70;99.90;;;;;;8359692;28;19909;-65
2021/06/19 00:16:37;;;;;;;;;;;20.00;99.90;;;;;;8359808;28;19940;-65
2021/06/19 00:20:39;;;;;;;;;;;19.80;99.90;;;;;;8359161;28;20030;-65
2021/06/19 00:24:40;;;;;;;;;;;19.50;99.90;;;;;;8359540;28;20566;-64
2021/06/19 00:28:40;;;;;;;;;;;19.40;99.90;;;;;;8359134;28;19982;-65
2021/06/19 00:32:41;;;;;;;;;;;19.40;99.90;;;;;;8357841;28;20284;-65
2021/06/19 00:36:42;;;;;;;;;;;19.70;99.90;;;;;;8358873;28;20291;-65
2021/06/19 00:40:42;;;;;;;;;;;19.40;99.90;;;;;;8359118;28;19912;-65
2021/06/19 00:44:43;;;;;;;;;;;19.60;99.90;;;;;;8359148;28;19909;-65
2021/06/19 00:48:43;;;;;;;;;;;19.50;99.90;;;;;;8357579;28;19959;-65
2021/06/19 00:52:44;;;;;;;;;;;19.60;99.90;;;;;;8359032;28;19920;-65
2021/06/19 00:56:46;;;;;;;;;;;19.90;99.90;;;;;;8358409;28;19954;-64
2021/06/19 01:00:47;;;;;;;;;;;19.80;99.90;;;;;;8358950;28;20007;-65
2021/06/19 01:04:47;;;;;;;;;;;19.90;99.90;;;;;;8359113;28;19947;-65
2021/06/19 01:08:47;;;;;;;;;;;20.00;99.90;;;;;;8358895;28;19943;-65
2021/06/19 01:12:48;;;;;;;;;;;19.80;99.90;;;;;;8358836;28;19935;-65
2021/06/19 01:16:50;;;;;;;;;;;19.80;99.90;;;;;;8358755;28;19943;-65
2021/06/19 01:20:50;;;;;;;;;;;19.90;99.90;;;;;;8358907;28;20383;-65
2021/06/19 01:24:51;;;;;;;;;;;19.70;99.90;;;;;;8358928;28;19973;-65
2021/06/19 01:28:52;;;;;;;;;;;19.60;99.90;;;;;;8358469;28;19940;-65
2021/06/19 01:32:53;;;;;;;;;;;19.50;99.90;;;;;;8359297;28;20378;-65
2021/06/19 01:36:54;;;;;;;;;;;19.50;99.90;;;;;;8364502;28;19908;-65
2021/06/19 01:40:54;;;;;;;;;;;19.70;99.90;;;;;;8364954;28;19919;-65
2021/06/19 01:44:54;;;;;;;;;;;19.70;99.90;;;;;;8364966;28;19912;-65
2021/06/19 01:48:55;;;;;;;;;;;19.70;99.90;;;;;;8363171;28;19961;-65
2021/06/19 01:52:56;;;;;;;;;;;19.50;99.90;;;;;;8364548;28;19917;-65
2021/06/19 01:56:56;;;;;;;;;;;19.30;99.90;;;;;;8362575;28;20414;-65
2021/06/19 02:00:57;;;;;;;;;;;19.10;99.90;;;;;;8364178;28;20046;-66
2021/06/19 02:04:58;;;;;;;;;;;19.10;99.90;;;;;;8363073;28;19913;-65
2021/06/19 02:09:09;;;;;;;;;;;19.00;99.90;;;;;;8362086;28;19913;-65
2021/06/19 02:13:10;;;;;;;;;;;18.90;99.90;;;;;;8362423;28;19947;-65
2021/06/19 02:17:11;;;;;;;;;;;19.00;99.90;;;;;;8363246;28;19908;-65
2021/06/19 02:21:11;;;;;;;;;;;19.30;99.90;;;;;;8363417;28;19913;-65
2021/06/19 02:25:13;;;;;;;;;;;19.20;99.90;;;;;;8363267;28;19920;-65
2021/06/19 02:29:13;;;;;;;;;;;19.00;99.90;;;;;;8362824;28;19948;-65
2021/06/19 02:33:14;;;;;;;;;;;18.90;99.90;;;;;;8362756;28;19950;-65
2021/06/19 02:37:14;;;;;;;;;;;18.90;99.90;;;;;;8362554;28;19954;-65
2021/06/19 02:41:15;;;;;;;;;;;19.30;99.90;;;;;;8362535;28;19913;-65
2021/06/19 02:45:15;;;;;;;;;;;19.20;99.90;;;;;;8361853;28;19909;-65
2021/06/19 02:49:16;;;;;;;;;;;19.00;99.90;;;;;;8361831;28;19908;-65
2021/06/19 02:53:16;;;;;;;;;;;19.00;99.90;;;;;;8408340;22;19924;-65
2021/06/19 02:57:17;;;;;;;;;;;19.00;99.90;;;;;;8394335;28;20005;-65
2021/06/19 03:01:17;;;;;;;;;;;18.90;99.90;;;;;;8395138;28;20352;-65
2021/06/19 03:05:19;;;;;;;;;;;18.70;99.90;;;;;;8365087;28;19927;-65
2021/06/19 03:09:19;;;;;;;;;;;18.80;99.90;;;;;;8361326;28;19955;-65
2021/06/19 03:13:20;;;;;;;;;;;19.10;99.90;;;;;;8361168;28;19943;-65
2021/06/19 03:17:21;;;;;;;;;;;18.90;99.90;;;;;;8360900;28;19912;-65
2021/06/19 03:21:21;;;;;;;;;;;18.80;99.90;;;;;;8361258;28;19917;-65
2021/06/19 03:25:23;;;;;;;;;;;18.80;99.90;;;;;;8361377;28;19909;-65
2021/06/19 03:29:24;;;;;;;;;;;18.60;99.90;;;;;;8390247;28;19909;-65
2021/06/19 03:33:24;;;;;;;;;;;18.50;99.90;;;;;;8385805;28;20405;-65
2021/06/19 03:37:25;;;;;;;;;;;18.70;99.90;;;;;;8360633;28;19908;-65
2021/06/19 03:41:25;;;;;;;;;;;18.80;99.90;;;;;;8360183;28;19916;-64
2021/06/19 03:45:27;;;;;;;;;;;19.00;99.90;;;;;;8360351;28;19913;-65
2021/06/19 03:49:28;;;;;;;;;;;19.00;99.90;;;;;;8358791;28;20019;-65
2021/06/19 03:53:28;;;;;;;;;;;18.80;99.90;;;;;;8359594;28;20505;-65
2021/06/19 03:57:31;;;;;;;;;;;18.60;99.90;;;;;;8357811;28;19912;-65
2021/06/19 04:01:31;;;;;;;;;;;18.60;99.90;;;;;;8358649;28;20003;-65
2021/06/19 04:05:32;;;;;;;;;;;18.80;99.90;;;;;;8385313;28;19908;-65
2021/06/19 04:09:32;;;;;;;;;;;19.10;99.90;;;;;;8392612;28;19912;-65
2021/06/19 04:13:33;;;;;;;;;;;19.00;99.90;;;;;;8392468;28;20008;-65
2021/06/19 04:17:33;;;;;;;;;;;18.90;99.90;;;;;;8392379;28;19945;-65
2021/06/19 04:21:34;;;;;;;;;;;18.90;99.90;;;;;;8392553;28;20009;-65
2021/06/19 04:25:34;;;;;;;;;;;19.10;99.90;;;;;;8362634;28;20036;-65
2021/06/19 04:29:34;;;;;;;;;;;19.80;99.90;;;;;;8358814;28;19908;-65
2021/06/19 04:33:35;;;;;;;;;;;19.90;99.90;;;;;;8368393;28;19909;-65
2021/06/19 04:37:35;;;;;;;;;;;20.20;99.90;;;;;;8392120;28;19908;-65
2021/06/19 04:41:48;;;;;;;;;;;20.40;99.90;;;;;;8391900;28;19946;-65
2021/06/19 04:45:48;;;;;;;;;;;20.40;99.90;;;;;;8391970;28;20043;-65
2021/06/19 04:49:49;;;;;;;;;;;20.50;99.90;;;;;;8390957;28;19928;-65
2021/06/19 04:53:51;;;;;;;;;;;20.50;99.90;;;;;;8382626;28;19924;-75
2021/06/19 04:57:55;;;;;;;;;;;20.50;99.90;;;;;;8373248;28;19966;-75
2021/06/19 05:01:55;;;;;;;;;;;20.80;99.90;;;;;;8372736;28;20406;-75
2021/06/19 05:05:57;;;;;;;;;;;21.10;99.90;;;;;;8367916;28;20073;-75
2021/06/19 05:09:58;;;;;;;;;;;21.70;99.90;;;;;;8378120;28;19985;-75
2021/06/19 05:14:00;;;;;;;;;;;22.10;99.90;;;;;;8383022;28;19908;-75
2021/06/19 05:18:00;;;;;;;;;;;22.30;99.90;;;;;;8381090;28;20413;-75
2021/06/19 05:22:01;;;;;;;;;;;22.50;99.90;;;;;;8379061;28;19948;-75
2021/06/19 05:26:01;;;;;;;;;;;22.80;99.90;;;;;;8368080;28;20278;-74
2021/06/19 05:30:02;;;;;;;;;;;22.70;99.90;;;;;;8364195;28;20346;-75
2021/06/19 05:34:03;;;;;;;;;;;22.80;99.90;;;;;;8383607;28;19912;-75
2021/06/19 05:38:03;;;;;;;;;;;22.70;99.90;;;;;;8396291;28;19916;-75
2021/06/19 05:42:04;;;;;;;;;;;22.90;99.90;;;;;;8373157;28;19916;-75
2021/06/19 05:46:05;;;;;;;;;;;23.20;99.90;;;;;;8365152;28;19909;-76
2021/06/19 05:50:06;;;;;;;;;;;23.30;99.90;;;;;;8375314;28;19917;-75
2021/06/19 05:54:07;;;;;;;;;;;23.30;99.90;;;;;;8368661;28;19917;-75
2021/06/19 05:58:09;;;;;;;;;;;23.30;99.90;;;;;;8361751;28;19913;-75
2021/06/19 06:02:09;;;;;;;;;;;23.30;99.90;;;;;;8371052;28;19946;-74
2021/06/19 06:06:10;;;;;;;;;;;23.70;99.90;;;;;;8386405;28;19949;-75
2021/06/19 06:10:11;;;;;;;;;;;24.00;99.90;;;;;;8396500;28;19913;-75
2021/06/19 06:14:11;;;;;;;;;;;24.40;99.90;;;;;;8386182;28;19923;-74
2021/06/19 06:18:12;;;;;;;;;;;25.10;99.90;;;;;;8383218;28;20366;-78
2021/06/19 06:22:12;;;;;;;;;;;25.50;99.90;;;;;;8391884;28;19957;-76
2021/06/19 06:26:13;;;;;;;;;;;25.20;99.90;;;;;;8362298;28;19951;-75
2021/06/19 06:30:14;;;;;;;;;;;24.90;99.90;;;;;;8370494;28;19947;-75
2021/06/19 06:34:14;;;;;;;;;;;24.70;99.90;;;;;;8382023;28;20458;-76
2021/06/19 06:38:15;;;;;;;;;;;24.80;99.90;;;;;;8370904;28;20011;-75
2021/06/19 06:42:15;;;;;;;;;;;25.00;99.90;;;;;;8395711;28;20018;-76
2021/06/19 06:46:16;;;;;;;;;;;24.80;99.90;;;;;;8385780;28;19994;-75
2021/06/19 06:50:17;;;;;;;;;;;24.90;99.90;;;;;;8395456;28;19932;-75
2021/06/19 06:54:18;;;;;;;;;;;25.10;99.90;;;;;;8377402;28;19924;-75
2021/06/19 06:58:19;;;;;;;;;;;25.30;99.90;;;;;;8373773;28;19921;-76
2021/06/19 07:02:20;;;;;;;;;;;25.40;99.90;;;;;;8368875;28;19994;-76
2021/06/19 07:06:21;;;;;;;;;;;25.70;99.90;;;;;;8386346;28;19912;-76
2021/06/19 07:10:22;;;;;;;;;;;25.90;99.90;;;;;;8392525;28;19919;-77
2021/06/19 07:14:22;;;;;;;;;;;26.00;99.90;;;;;;8385666;28;20412;-75
2021/06/19 07:18:24;;;;;;;;;;;25.90;99.90;;;;;;8361603;28;19916;-75
2021/06/19 07:22:25;;;;;;;;;;;26.10;99.90;;;;;;8360197;28;19948;-76
2021/06/19 07:26:25;;;;;;;;;;;26.50;99.90;;;;;;8369982;28;19919;-76
2021/06/19 07:30:26;;;;;;;;;;;27.00;99.90;;;;;;8384846;28;19923;-76
2021/06/19 07:34:27;;;;;;;;;;;26.80;99.90;;;;;;8367960;28;19947;-76
2021/06/19 07:38:29;;;;;;;;;;;26.80;99.90;;;;;;8388530;28;19936;-76
2021/06/19 07:42:31;;;;;;;;;;;26.80;99.90;;;;;;8380713;28;19999;-76
2021/06/19 07:46:31;;;;;;;;;;;27.00;99.90;;;;;;8378081;28;20390;-75
2021/06/19 07:50:32;;;;;;;;;;;27.00;99.90;;;;;;8376348;28;20004;-75
2021/06/19 07:54:36;;;;;;;;;;;27.30;99.90;;;;;;8375852;28;19958;-75
2021/06/19 07:58:37;;;;;;;;;;;27.60;99.90;;;;;;8374953;28;19920;-75
2021/06/19 08:02:38;;;;;;;;;;;27.80;99.90;;;;;;8376827;28;20451;-75
2021/06/19 08:06:38;;;;;;;;;;;28.20;99.90;;;;;;8369299;28;20386;-75
2021/06/19 08:10:39;;;;;;;;;;;28.00;99.90;;;;;;8390878;28;19931;-75
2021/06/19 08:14:40;;;;;;;;;;;28.00;99.90;;;;;;8385568;28;19999;-76
2021/06/19 08:18:40;;;;;;;;;;;28.00;99.90;;;;;;8386399;28;20003;-76
2021/06/19 08:22:41;;;;;;;;;;;27.90;99.90;;;;;;8372728;28;19936;-77
2021/06/19 08:26:43;;;;;;;;;;;28.10;99.90;;;;;;8386707;28;20387;-76
2021/06/19 08:30:43;;;;;;;;;;;28.10;99.90;;;;;;8374099;28;20276;-76
2021/06/19 08:34:44;;;;;;;;;;;27.60;99.90;;;;;;8367627;28;19924;-77
2021/06/19 08:38:45;;;;;;;;;;;27.90;99.90;;;;;;8374216;28;19946;-76
2021/06/19 08:42:45;;;;;;;;;;;28.10;99.90;;;;;;8374618;28;19929;-76
2021/06/19 08:46:46;;;;;;;;;;;28.60;99.90;;;;;;8372037;28;19919;-76
2021/06/19 08:50:47;;;;;;;;;;;29.00;99.90;;;;;;8389286;22;20069;-66
2021/06/19 08:54:48;;;;;;;;;;;29.00;99.90;;;;;;8390413;28;19916;-66
2021/06/19 08:58:49;;;;;;;;;;;29.40;99.90;;;;;;8389024;28;20026;-71
2021/06/19 09:02:51;;;;;;;;;;;29.80;99.90;;;;;;8363989;28;20494;-68
2021/06/19 09:06:53;;;;;;;;;;;29.60;99.90;;;;;;8355120;28;19908;-69
2021/06/19 09:10:54;;;;;;;;;;;30.00;99.90;;;;;;8350850;28;19913;-69
2021/06/19 09:15:14;;;;;;;;;;;30.30;99.90;;;;;;8356010;28;19913;-69
2021/06/19 09:19:22;;;;;;;;;;;30.60;99.90;;;;;;8354957;28;19990;-68
2021/06/19 09:23:33;;;;;;;;;;;30.30;99.90;;;;;;8356282;28;19917;-68
2021/06/19 09:27:46;;;;;;;;;;;30.50;99.90;;;;;;8353989;28;19916;-66
2021/06/19 09:31:50;;;;;;;;;;;30.90;99.90;;;;;;8355247;28;19949;-68
2021/06/19 09:35:51;;;;;;;;;;;30.80;99.90;;;;;;8355451;28;20334;-69
2021/06/19 09:39:51;;;;;;;;;;;30.80;99.90;;;;;;8356285;28;19954;-69
2021/06/19 09:43:52;;;;;;;;;;;30.80;99.90;;;;;;8355153;28;20476;-69
2021/06/19 09:47:52;;;;;;;;;;;31.00;99.90;;;;;;8356778;28;19963;-69
2021/06/19 09:51:53;;;;;;;;;;;31.00;99.90;;;;;;8356918;28;19916;-69
2021/06/19 09:56:07;;;;;;;;;;;31.60;99.90;;;;;;8360805;28;20371;-69
2021/06/19 10:00:08;;;;;;;;;;;31.50;99.20;;;;;;8357041;28;19912;-69
2021/06/19 10:04:09;;;;;;;;;;;31.40;99.90;;;;;;8360786;28;19913;-69
2021/06/19 10:08:13;;;;;;;;;;;31.30;99.90;;;;;;8360421;28;20410;-69
2021/06/19 10:12:13;;;;;;;;;;;31.60;99.90;;;;;;8359056;28;19943;-69
2021/06/19 10:16:15;;;;;;;;;;;32.00;99.90;;;;;;8360264;28;20487;-69
2021/06/19 10:20:16;;;;;;;;;;;31.90;99.60;;;;;;8362141;28;19967;-69
2021/06/19 10:24:17;;;;;;;;;;;32.00;97.90;;;;;;8362857;28;20430;-69
2021/06/19 10:28:18;;;;;;;;;;;32.10;98.40;;;;;;8362649;28;19909;-69
2021/06/19 10:32:38;;;;;;;;;;;31.80;95.30;;;;;;8363151;28;19955;-69
2021/06/19 10:36:38;;;;;;;;;;;31.50;94.00;;;;;;8330066;28;20571;-69
2021/06/19 10:40:49;;;;;;;;;;;31.40;92.50;;;;;;8329602;28;20006;-69
2021/06/19 10:44:51;;;;;;;;;;;31.80;94.30;;;;;;8360639;28;20378;-69
2021/06/19 10:48:54;;;;;;;;;;;32.60;95.40;;;;;;8362471;28;20353;-69
2021/06/19 10:53:02;;;;;;;;;;;32.60;93.90;;;;;;8357740;28;20511;-69
2021/06/19 10:57:03;;;;;;;;;;;32.70;91.10;;;;;;8359864;28;19921;-69
2021/06/19 11:01:04;;;;;;;;;;;32.90;94.40;;;;;;8360997;28;20000;-70
2021/06/19 11:05:05;;;;;;;;;;;33.60;93.60;;;;;;8356494;28;19948;-69
2021/06/19 11:09:07;;;;;;;;;;;33.50;91.00;;;;;;8359835;28;20451;-69
2021/06/19 11:13:26;;;;;;;;;;;33.70;93.10;;;;;;8359861;28;20003;-70
2021/06/19 11:17:33;;;;;;;;;;;34.40;92.10;;;;;;8359344;28;20386;-70
2021/06/19 11:21:33;;;;;;;;;;;34.00;90.20;;;;;;8357453;28;19924;-69
2021/06/19 11:25:37;;;;;;;;;;;34.30;90.60;;;;;;8358959;28;19908;-69
2021/06/19 11:29:39;;;;;;;;;;;34.70;89.70;;;;;;8358505;28;19939;-69
2021/06/19 11:33:41;;;;;;;;;;;34.30;86.70;;;;;;8359235;28;19917;-69
2021/06/19 11:37:52;;;;;;;;;;;34.70;86.70;;;;;;8358215;28;19913;-69
2021/06/19 11:41:56;;;;;;;;;;;35.70;84.60;;;;;;8359270;28;20003;-69
2021/06/19 11:45:57;;;;;;;;;;;36.90;77.60;;;;;;8358221;28;20003;-69
2021/06/19 11:50:05;;;;;;;;;;;37.70;73.70;;;;;;8359586;28;20021;-70
2021/06/19 11:54:13;;;;;;;;;;;39.00;67.60;;;;;;8356061;28;19921;-69
2021/06/19 11:58:13;;;;;;;;;;;38.10;66.70;;;;;;8357827;28;19912;-69
2021/06/19 12:02:14;;;;;;;;;;;36.10;64.60;;;;;;8358693;28;19946;-69
2021/06/19 12:06:15;;;;;;;;;;;35.50;72.90;;;;;;8355949;28;23321;-69
2021/06/19 12:10:22;;;;;;;;;;;35.70;73.60;;;;;;8358261;28;19943;-69
2021/06/19 12:14:27;;;;;;;;;;;35.90;73.70;;;;;;8357470;28;19982;-69
2021/06/19 12:18:28;;;;;;;;;;;36.40;71.20;;;;;;8358134;28;20460;-69
2021/06/19 12:22:28;;;;;;;;;;;36.10;68.10;;;;;;8356604;28;19917;-69
2021/06/19 12:26:29;;;;;;;;;;;35.10;69.30;;;;;;8357214;28;19920;-69
2021/06/19 12:30:30;;;;;;;;;;;34.40;71.40;;;;;;8355879;28;19913;-69
2021/06/19 12:34:33;;;;;;;;;;;34.90;70.00;;;;;;8357649;28;19968;-70
2021/06/19 12:38:34;;;;;;;;;;;36.40;66.00;;;;;;8355338;28;19916;-69
2021/06/19 12:42:43;;;;;;;;;;;36.10;61.80;;;;;;8358264;28;20011;-69
2021/06/19 12:46:43;;;;;;;;;;;36.70;63.60;;;;;;8358191;28;19917;-71
2021/06/19 12:50:44;;;;;;;;;;;37.30;61.80;;;;;;8357229;28;20493;-72
2021/06/19 12:54:44;;;;;;;;;;;37.50;62.50;;;;;;8353108;28;20387;-72
2021/06/19 12:58:46;;;;;;;;;;;38.90;61.30;;;;;;8354601;28;19923;-72
2021/06/19 13:02:54;;;;;;;;;;;42.10;52.10;;;;;;8354452;28;19921;-72
2021/06/19 13:07:02;;;;;;;;;;;40.30;54.10;;;;;;8358694;28;20004;-72
2021/06/19 13:11:27;;;;;;;;;;;39.40;54.70;;;;;;8357016;28;20004;-72
2021/06/19 13:15:28;;;;;;;;;;;41.90;50.70;;;;;;8352410;28;19920;-72
2021/06/19 13:19:33;;;;;;;;;;;43.10;45.90;;;;;;8355622;28;20000;-72
2021/06/19 13:23:34;;;;;;;;;;;43.80;46.80;;;;;;8356122;28;19921;-72
2021/06/19 13:27:47;;;;;;;;;;;43.70;43.40;;;;;;8356705;28;20062;-73
2021/06/19 13:31:48;;;;;;;;;;;42.60;45.50;;;;;;8363122;28;19943;-73
2021/06/19 13:35:48;;;;;;;;;;;41.80;47.90;;;;;;8360077;28;19913;-74
2021/06/19 13:39:50;;;;;;;;;;;44.30;42.70;;;;;;8363084;28;19912;-74
2021/06/19 13:43:50;;;;;;;;;;;46.80;38.60;;;;;;8362682;28;19935;-73
2021/06/19 13:47:51;;;;;;;;;;;45.90;40.10;;;;;;8363888;28;20405;-72
2021/06/19 13:51:56;;;;;;;;;;;45.80;38.70;;;;;;8360931;28;19954;-73
2021/06/19 13:55:57;;;;;;;;;;;46.10;39.10;;;;;;8357698;28;19928;-72
2021/06/19 13:59:58;;;;;;;;;;;46.30;38.80;;;;;;8359477;28;19919;-70
2021/06/19 14:03:59;;;;;;;;;;;46.60;37.70;;;;;;8357702;28;19917;-70
2021/06/19 14:07:59;;;;;;;;;;;47.70;36.90;;;;;;8361858;28;19964;-68
2021/06/19 14:12:01;;;;;;;;;;;45.80;37.00;;;;;;8363195;28;19920;-69
2021/06/19 14:16:02;;;;;;;;;;;45.00;35.90;;;;;;8362338;28;21151;-69
2021/06/19 14:20:03;;;;;;;;;;;45.90;36.20;;;;;;8362182;28;19963;-69
2021/06/19 14:24:05;;;;;;;;;;;44.80;37.70;;;;;;8362273;28;20394;-69
2021/06/19 14:28:07;;;;;;;;;;;43.80;40.20;;;;;;8351370;28;20613;-70
2021/06/19 14:32:08;;;;;;;;;;;44.50;38.80;;;;;;8357013;28;20314;-68
2021/06/19 14:36:09;;;;;;;;;;;44.00;36.50;;;;;;8355761;28;19938;-69
2021/06/19 14:40:09;;;;;;;;;;;41.90;40.40;;;;;;8338977;28;19913;-71
2021/06/19 14:44:10;;;;;;;;;;;41.00;41.80;;;;;;8356051;28;19919;-70
2021/06/19 14:48:11;;;;;;;;;;;42.30;38.70;;;;;;8346925;28;19917;-70
2021/06/19 14:52:11;;;;;;;;;;;40.30;42.70;;;;;;8335419;28;19928;-71
2021/06/19 14:56:12;;;;;;;;;;;40.70;42.70;;;;;;8355754;28;20382;-69
2021/06/19 15:00:13;;;;;;;;;;;41.90;41.30;;;;;;8332440;28;19917;-71
2021/06/19 15:04:14;;;;;;;;;;;42.50;39.60;;;;;;8342013;28;19917;-71
2021/06/19 15:08:16;;;;;;;;;;;43.00;40.30;;;;;;8333384;28;19917;-68
2021/06/19 15:12:16;;;;;;;;;;;42.10;38.90;;;;;;8348382;28;20566;-69
2021/06/19 15:16:17;;;;;;;;;;;41.60;41.60;;;;;;8391846;22;19928;-70
2021/06/19 15:20:17;;;;;;;;;;;42.10;41.10;;;;;;8393235;28;20393;-68
2021/06/19 15:24:18;;;;;;;;;;;42.00;40.80;;;;;;8386237;28;20014;-70
2021/06/19 15:28:20;;;;;;;;;;;43.00;40.40;;;;;;8356644;28;19917;-71
2021/06/19 15:32:21;;;;;;;;;;;43.60;40.00;;;;;;8352436;28;20392;-71
2021/06/19 15:36:21;;;;;;;;;;;44.60;38.60;;;;;;8355169;28;19917;-71
2021/06/19 15:40:22;;;;;;;;;;;45.80;36.10;;;;;;8354538;28;20323;-69
2021/06/19 15:44:22;;;;;;;;;;;46.50;36.70;;;;;;8358831;28;19913;-71
2021/06/19 15:48:23;;;;;;;;;;;47.60;35.00;;;;;;8356902;28;20349;-70
2021/06/19 15:52:24;;;;;;;;;;;47.10;34.00;;;;;;8359882;28;19909;-71
2021/06/19 15:56:24;;;;;;;;;;;45.60;36.60;;;;;;8360748;28;19916;-71
2021/06/19 16:00:25;;;;;;;;;;;45.00;36.60;;;;;;8360240;28;19909;-70
2021/06/19 16:04:25;;;;;;;;;;;43.90;37.70;;;;;;8360861;28;19913;-71
2021/06/19 16:08:26;;;;;;;;;;;44.50;37.20;;;;;;8360159;28;19912;-70
2021/06/19 16:12:26;;;;;;;;;;;44.10;36.30;;;;;;8360971;28;20011;-71
2021/06/19 16:16:27;;;;;;;;;;;43.70;36.90;;;;;;8359976;28;19924;-68
2021/06/19 16:20:27;;;;;;;;;;;42.40;37.70;;;;;;8360156;28;19915;-69
2021/06/19 16:24:28;;;;;;;;;;;40.20;41.40;;;;;;8360227;28;19909;-69
2021/06/19 16:28:28;;;;;;;;;;;39.30;42.30;;;;;;8359492;28;19913;-70
2021/06/19 16:32:29;;;;;;;;;;;38.90;44.50;;;;;;8360342;28;20022;-69
2021/06/19 16:36:29;;;;;;;;;;;39.10;43.00;;;;;;8326678;28;19912;-68
2021/06/19 16:40:30;;;;;;;;;;;38.40;43.40;;;;;;8351789;28;19944;-70
2021/06/19 16:44:30;;;;;;;;;;;38.20;46.80;;;;;;8359788;28;19909;-69
2021/06/19 16:48:31;;;;;;;;;;;39.50;44.00;;;;;;8359438;28;19909;-70
2021/06/19 16:52:31;;;;;;;;;;;40.90;43.30;;;;;;8357980;28;20390;-70
2021/06/19 16:56:32;;;;;;;;;;;41.40;40.50;;;;;;8359225;28;20382;-70
2021/06/19 17:00:33;;;;;;;;;;;41.20;42.10;;;;;;8358994;28;20428;-70
2021/06/19 17:04:33;;;;;;;;;;;41.20;41.80;;;;;;8365349;28;19952;-70
2021/06/19 17:08:34;;;;;;;;;;;41.10;41.30;;;;;;8368617;28;19913;-70
2021/06/19 17:12:36;;;;;;;;;;;40.50;42.40;;;;;;8370394;28;19909;-69
2021/06/19 17:16:36;;;;;;;;;;;40.40;44.00;;;;;;8369388;28;19955;-68
2021/06/19 17:20:37;;;;;;;;;;;40.10;44.30;;;;;;8368472;28;20334;-70
2021/06/19 17:24:38;;;;;;;;;;;40.10;44.50;;;;;;8369688;28;19909;-70
2021/06/19 17:28:38;;;;;;;;;;;39.10;45.80;;;;;;8369191;28;19919;-70
2021/06/19 17:32:39;;;;;;;;;;;37.90;47.70;;;;;;8369800;28;20415;-67
2021/06/19 17:36:39;;;;;;;;;;;36.10;51.00;;;;;;8367937;28;19909;-69
2021/06/19 17:40:40;;;;;;;;;;;35.50;53.30;;;;;;8369125;28;19920;-70
2021/06/19 17:44:40;;;;;;;;;;;34.90;54.60;;;;;;8369485;28;19908;-70
2021/06/19 17:48:41;;;;;;;;;;;35.20;54.90;;;;;;8369800;28;19920;-70
2021/06/19 17:52:42;;;;;;;;;;;34.20;54.10;;;;;;8369375;28;19923;-70
2021/06/19 17:56:43;;;;;;;;;;;33.70;57.20;;;;;;8369219;28;19917;-69
2021/06/19 18:00:43;;;;;;;;;;;33.30;55.60;;;;;;8368737;28;20042;-70
2021/06/19 18:04:43;;;;;;;;;;;33.10;58.40;;;;;;8368854;28;20007;-69
2021/06/19 18:08:44;;;;;;;;;;;33.10;58.10;;;;;;8367945;28;20003;-67
2021/06/19 18:12:45;;;;;;;;;;;32.40;58.30;;;;;;8367288;28;20450;-69
2021/06/19 18:16:46;;;;;;;;;;;31.70;61.40;;;;;;8363819;28;20368;-69
2021/06/19 18:20:47;;;;;;;;;;;31.10;63.90;;;;;;8363807;28;19917;-69
2021/06/19 18:24:47;;;;;;;;;;;30.60;68.20;;;;;;8363762;28;19909;-69
2021/06/19 18:28:48;;;;;;;;;;;30.10;71.80;;;;;;8363167;28;19916;-69
2021/06/19 18:32:48;;;;;;;;;;;29.80;75.30;;;;;;8363575;28;19966;-70
2021/06/19 18:36:49;;;;;;;;;;;29.50;76.90;;;;;;8361700;28;20012;-67
2021/06/19 18:40:49;;;;;;;;;;;29.00;78.20;;;;;;8362643;28;19916;-69
2021/06/19 18:44:50;;;;;;;;;;;28.60;80.90;;;;;;8363078;28;19943;-69
2021/06/19 18:48:50;;;;;;;;;;;28.20;84.80;;;;;;8362649;28;19915;-68
2021/06/19 18:52:51;;;;;;;;;;;27.80;87.50;;;;;;8362625;28;20290;-69
2021/06/19 18:56:51;;;;;;;;;;;27.50;89.00;;;;;;8362267;28;19909;-69
2021/06/19 19:00:52;;;;;;;;;;;27.20;90.90;;;;;;8362016;28;20059;-69
2021/06/19 19:04:55;;;;;;;;;;;27.10;92.90;;;;;;8359652;28;19993;-69
2021/06/19 19:08:56;;;;;;;;;;;26.90;95.10;;;;;;8360197;28;19931;-69
2021/06/19 19:12:56;;;;;;;;;;;26.60;98.20;;;;;;8359638;28;19952;-69
2021/06/19 19:16:57;;;;;;;;;;;26.30;99.90;;;;;;8360008;28;20015;-69
2021/06/19 19:20:58;;;;;;;;;;;26.30;99.90;;;;;;8361501;28;20403;-69
2021/06/19 19:24:59;;;;;;;;;;;26.40;99.90;;;;;;8361610;28;19939;-69
2021/06/19 19:28:59;;;;;;;;;;;26.10;99.90;;;;;;8360099;28;20290;-69
2021/06/19 19:33:01;;;;;;;;;;;25.90;99.90;;;;;;8361394;28;19923;-69
2021/06/19 19:37:04;;;;;;;;;;;26.00;99.90;;;;;;8359494;28;19916;-69
2021/06/19 19:41:04;;;;;;;;;;;25.90;99.90;;;;;;8360662;28;19913;-70
2021/06/19 19:45:05;;;;;;;;;;;25.60;99.90;;;;;;8360930;28;19916;-68
2021/06/19 19:49:05;;;;;;;;;;;25.50;99.90;;;;;;8360533;28;19915;-68
2021/06/19 19:53:06;;;;;;;;;;;25.50;99.90;;;;;;8360696;28;19913;-69
2021/06/19 19:57:07;;;;;;;;;;;25.40;99.90;;;;;;8360234;28;19913;-69
2021/06/19 20:01:07;;;;;;;;;;;25.40;99.90;;;;;;8358473;28;19959;-69
2021/06/19 20:05:08;;;;;;;;;;;25.20;99.90;;;;;;8359968;28;19909;-69
2021/06/19 20:09:09;;;;;;;;;;;25.00;99.90;;;;;;8359775;28;19947;-69
2021/06/19 20:13:09;;;;;;;;;;;25.30;99.90;;;;;;8358754;28;19947;-69
2021/06/19 20:17:10;;;;;;;;;;;25.20;99.90;;;;;;8357163;28;19917;-67
2021/06/19 20:21:11;;;;;;;;;;;25.20;99.90;;;;;;8358566;28;19916;-68
2021/06/19 20:25:12;;;;;;;;;;;25.30;99.90;;;;;;8359586;28;19954;-68
2021/06/19 20:29:12;;;;;;;;;;;25.30;99.90;;;;;;8358390;28;19917;-67
2021/06/19 20:33:13;;;;;;;;;;;25.20;99.90;;;;;;8356378;28;20405;-67
2021/06/19 20:37:15;;;;;;;;;;;25.00;99.90;;;;;;8356541;28;19947;-67
2021/06/19 20:41:15;;;;;;;;;;;24.60;99.90;;;;;;8358703;28;19974;-68
2021/06/19 20:45:16;;;;;;;;;;;24.30;99.90;;;;;;8358175;28;19908;-67
2021/06/19 20:49:16;;;;;;;;;;;24.30;99.90;;;;;;8359009;28;19924;-68
2021/06/19 20:53:17;;;;;;;;;;;24.20;99.90;;;;;;8358945;28;19955;-66
2021/06/19 20:57:22;;;;;;;;;;;24.20;99.90;;;;;;8358583;28;19909;-68
2021/06/19 21:01:23;;;;;;;;;;;23.80;99.90;;;;;;8358485;28;19912;-67
2021/06/19 21:05:24;;;;;;;;;;;23.50;99.90;;;;;;8355960;28;20038;-67
2021/06/19 21:09:24;;;;;;;;;;;23.30;99.90;;;;;;8354396;28;19948;-68
2021/06/19 21:13:24;;;;;;;;;;;23.30;99.90;;;;;;8355287;28;19923;-67
2021/06/19 21:17:25;;;;;;;;;;;23.30;99.90;;;;;;8396762;23;19966;-66
2021/06/19 21:21:25;;;;;;;;;;;22.90;99.90;;;;;;8391117;28;19947;-66
2021/06/19 21:25:26;;;;;;;;;;;23.00;99.90;;;;;;8391548;28;20057;-66
2021/06/19 21:29:28;;;;;;;;;;;22.90;99.90;;;;;;8391203;28;19995;-66
2021/06/19 21:33:28;;;;;;;;;;;22.70;99.90;;;;;;8382338;28;19913;-66
2021/06/19 21:37:29;;;;;;;;;;;22.70;99.90;;;;;;8357815;28;19954;-66
2021/06/19 21:41:29;;;;;;;;;;;22.50;99.90;;;;;;8357955;28;20325;-65
2021/06/19 21:45:30;;;;;;;;;;;22.60;99.90;;;;;;8358033;28;20287;-65
2021/06/19 21:49:30;;;;;;;;;;;22.40;99.90;;;;;;8357845;28;20080;-66
2021/06/19 21:53:31;;;;;;;;;;;22.20;99.90;;;;;;8366217;28;19960;-66
2021/06/19 21:57:32;;;;;;;;;;;22.20;99.90;;;;;;8363229;28;19992;-66
2021/06/19 22:01:33;;;;;;;;;;;22.20;99.90;;;;;;8393691;28;19958;-65
2021/06/19 22:05:33;;;;;;;;;;;22.10;99.90;;;;;;8376419;28;20047;-66
2021/06/19 22:09:34;;;;;;;;;;;22.20;99.90;;;;;;8363387;28;19909;-65
2021/06/19 22:13:34;;;;;;;;;;;22.20;99.90;;;;;;8384052;28;19915;-65
2021/06/19 22:17:35;;;;;;;;;;;22.00;99.90;;;;;;8373871;28;19953;-65
2021/06/19 22:21:35;;;;;;;;;;;22.00;99.90;;;;;;8386650;28;19963;-65
2021/06/19 22:25:36;;;;;;;;;;;21.80;99.90;;;;;;8366564;28;19916;-66
2021/06/19 22:29:37;;;;;;;;;;;21.70;99.90;;;;;;8362726;28;19908;-66
2021/06/19 22:33:37;;;;;;;;;;;21.40;99.90;;;;;;8372396;28;20440;-66
2021/06/19 22:37:38;;;;;;;;;;;21.40;99.90;;;;;;8395812;28;19909;-66
2021/06/19 22:41:39;;;;;;;;;;;21.10;99.90;;;;;;8395746;28;19958;-66
2021/06/19 22:45:39;;;;;;;;;;;20.90;99.90;;;;;;8395615;28;19972;-66
2021/06/19 22:49:40;;;;;;;;;;;20.70;99.90;;;;;;8395507;28;19954;-65
2021/06/19 22:53:40;;;;;;;;;;;21.10;99.90;;;;;;8381553;28;20373;-66
2021/06/19 22:57:41;;;;;;;;;;;21.20;99.90;;;;;;8361955;28;19947;-66
2021/06/19 23:01:41;;;;;;;;;;;21.00;99.90;;;;;;8361285;28;19943;-65
2021/06/19 23:05:42;;;;;;;;;;;20.90;99.90;;;;;;8374619;28;20026;-65
2021/06/19 23:09:42;;;;;;;;;;;20.80;99.90;;;;;;8378703;28;20443;-66
2021/06/19 23:13:43;;;;;;;;;;;21.20;99.90;;;;;;8377678;28;19909;-65
2021/06/19 23:17:44;;;;;;;;;;;21.00;99.90;;;;;;8375802;28;19916;-65
2021/06/19 23:21:44;;;;;;;;;;;20.80;99.90;;;;;;8376679;28;20006;-66